Time,TemperatureF,DewpointF,PressureIn,WindDirection,WindDirectionDegrees,WindSpeedMPH,WindSpeedGustMPH,Humidity,HourlyPrecipIn,Conditions,Clouds,dailyrainin,SoftwareType,DateUTC
2013-07-21 00:02:00,75.0,-99.9,-100.00,ESE,114,2.0,6.0,-999,-99.99,,,-99.99,,2013-07-21 06:02:00,
2013-07-21 00:22:00,75.0,-99.9,-100.00,East,84,2.0,4.0,-999,-99.99,,,-99.99,,2013-07-21 06:22:00,
2013-07-21 00:32:00,75.0,-99.9,-100.00,East,84,2.0,4.0,-999,-99.99,,,-99.99,,2013-07-21 06:32:00,
2013-07-21 03:22:00,70.0,-99.9,-100.00,ENE,70,0.0,0.0,-999,-99.99,,,-99.99,,2013-07-21 09:22:00,
2013-07-21 03:33:00,69.0,-99.9,-100.00,East,98,3.0,5.0,-999,-99.99,,,-99.99,,2013-07-21 09:33:00,
2013-07-21 03:42:00,69.0,-99.9,-100.00,East,98,3.0,5.0,-999,-99.99,,,-99.99,,2013-07-21 09:42:00,
2013-07-21 03:52:00,69.0,-99.9,-100.00,East,98,3.0,5.0,-999,-99.99,,,-99.99,,2013-07-21 09:52:00,
2013-07-21 04:32:00,68.0,-99.9,-100.00,ESE,104,4.0,4.0,-999,-99.99,,,-99.99,,2013-07-21 10:32:00,
2013-07-21 04:43:00,68.0,-99.9,-100.00,ESE,104,4.0,4.0,-999,-99.99,,,-99.99,,2013-07-21 10:43:00,
2013-07-21 04:53:00,68.0,-99.9,-100.00,East,95,3.0,6.0,-999,-99.99,,,-99.99,,2013-07-21 10:53:00,
2013-07-21 05:02:00,68.0,-99.9,-100.00,East,95,3.0,6.0,-999,-99.99,,,-99.99,,2013-07-21 11:02:00,
2013-07-21 05:43:00,67.0,-99.9,-100.00,ENE,76,3.0,5.0,-999,-99.99,,,-99.99,,2013-07-21 11:43:00,
2013-07-21 06:32:00,65.0,-99.9,-100.00,East,89,1.0,7.0,-999,-99.99,,,-99.99,,2013-07-21 12:32:00,
2013-07-21 06:40:00,65.0,-99.9,-100.00,ENE,73,2.0,5.0,-999,-99.99,,,-99.99,,2013-07-21 12:40:00,
2013-07-21 06:43:00,65.0,-99.9,-100.00,East,89,1.0,7.0,-999,-99.99,,,-99.99,,2013-07-21 12:43:00,
2013-07-21 06:53:00,65.0,-99.9,-100.00,East,89,1.0,7.0,-999,-99.99,,,-99.99,,2013-07-21 12:53:00,
2013-07-21 07:22:00,65.0,-99.9,-100.00,ENE,73,2.0,5.0,-999,-99.99,,,-99.99,,2013-07-21 13:22:00,
2013-07-21 07:33:00,65.0,-99.9,-100.00,ENE,73,2.0,5.0,-999,-99.99,,,-99.99,,2013-07-21 13:33:00,
2013-07-21 07:53:00,68.0,-99.9,-100.00,ENE,78,5.0,5.0,-999,-99.99,,,-99.99,,2013-07-21 13:53:00,
2013-07-21 08:02:00,68.0,-99.9,-100.00,ENE,78,5.0,5.0,-999,-99.99,,,-99.99,,2013-07-21 14:02:00,
2013-07-21 09:30:00,75.0,-99.9,-100.00,WSW,246,1.0,3.0,-999,-99.99,,,-99.99,,2013-07-21 15:30:00,
2013-07-21 10:22:00,75.0,-99.9,-100.00,WSW,246,1.0,3.0,-999,-99.99,,,-99.99,,2013-07-21 16:22:00,
2013-07-21 10:52:00,78.0,-99.9,-100.00,East,92,3.0,5.0,-999,-99.99,,,-99.99,,2013-07-21 16:52:00,
2013-07-21 11:02:00,78.0,-99.9,-100.00,East,92,3.0,5.0,-999,-99.99,,,-99.99,,2013-07-21 17:02:00,
2013-07-21 11:50:00,80.0,-99.9,-100.00,East,95,2.0,5.0,-999,-99.99,,,-99.99,,2013-07-21 17:50:00,
2013-07-21 11:53:00,80.0,-99.9,-100.00,ESE,116,2.0,3.0,-999,-99.99,,,-99.99,,2013-07-21 17:53:00,
2013-07-21 12:01:00,80.0,-99.9,-100.00,ESE,116,2.0,3.0,-999,-99.99,,,-99.99,,2013-07-21 18:01:00,
2013-07-21 12:11:00,80.0,-99.9,-100.00,ESE,116,2.0,3.0,-999,-99.99,,,-99.99,,2013-07-21 18:11:00,
2013-07-21 12:43:00,80.0,-99.9,-100.00,East,95,2.0,5.0,-999,-99.99,,,-99.99,,2013-07-21 18:43:00,
2013-07-21 13:52:00,83.0,-99.9,-100.00,North,359,0.0,1.0,-999,-99.99,,,-99.99,,2013-07-21 19:52:00,
2013-07-21 14:02:00,83.0,-99.9,-100.00,North,359,0.0,1.0,-999,-99.99,,,-99.99,,2013-07-21 20:02:00,
2013-07-21 15:11:00,88.0,-99.9,-100.00,NNW,329,0.0,3.0,-999,-99.99,,,-99.99,,2013-07-21 21:11:00,
2013-07-21 15:43:00,88.0,-99.9,-100.00,ENE,67,2.0,3.0,-999,-99.99,,,-99.99,,2013-07-21 21:43:00,
2013-07-21 15:52:00,91.0,-99.9,-100.00,ESE,109,2.0,3.0,-999,-99.99,,,-99.99,,2013-07-21 21:52:00,
2013-07-21 16:01:00,91.0,-99.9,-100.00,ESE,109,2.0,3.0,-999,-99.99,,,-99.99,,2013-07-21 22:01:00,
2013-07-21 16:43:00,87.0,-99.9,-100.00,SW,216,2.0,2.0,-999,-99.99,,,-99.99,,2013-07-21 22:43:00,
2013-07-21 16:52:00,87.0,-99.9,-100.00,SW,216,2.0,2.0,-999,-99.99,,,-99.99,,2013-07-21 22:52:00,
2013-07-21 19:12:00,90.0,-99.9,-100.00,East,92,3.0,3.0,-999,-99.99,,,-99.99,,2013-07-22 01:12:00,
2013-07-21 19:32:00,88.0,-99.9,-100.00,North,355,0.0,0.0,-999,-99.99,,,-99.99,,2013-07-22 01:32:00,
2013-07-21 19:42:00,88.0,-99.9,-100.00,North,355,0.0,0.0,-999,-99.99,,,-99.99,,2013-07-22 01:42:00,
2013-07-21 19:52:00,88.0,-99.9,-100.00,North,355,0.0,0.0,-999,-99.99,,,-99.99,,2013-07-22 01:52:00,
2013-07-21 20:02:00,88.0,-99.9,-100.00,West,264,2.0,3.0,-999,-99.99,,,-99.99,,2013-07-22 02:02:00,
2013-07-21 20:11:00,88.0,-99.9,-100.00,West,264,2.0,3.0,-999,-99.99,,,-99.99,,2013-07-22 02:11:00,
2013-07-21 20:52:00,84.0,-99.9,-100.00,SSW,203,3.0,3.0,-999,-99.99,,,-99.99,,2013-07-22 02:52:00,
2013-07-21 21:12:00,83.0,-99.9,-100.00,SE,131,1.0,2.0,-999,-99.99,,,-99.99,,2013-07-22 03:12:00,